createdAt,value
2017-05-04T00:00:02.641Z,9.36
2017-05-04T00:15:02.966Z,9.21
2017-05-04T00:30:02.707Z,9.15
2017-05-04T00:45:02.564Z,9.05
2017-05-04T01:00:02.654Z,8.94
2017-05-04T01:15:02.722Z,8.85
2017-05-04T01:30:02.278Z,8.75
2017-05-04T01:45:02.946Z,8.66
2017-05-04T02:00:02.144Z,8.56
2017-05-04T02:15:02.174Z,8.48
2017-05-04T02:30:02.214Z,8.41
2017-05-04T02:45:02.172Z,8.33
2017-05-04T03:00:02.403Z,8.2
2017-05-04T03:15:03.089Z,7.96
2017-05-04T03:30:02.324Z,7.77
2017-05-04T03:45:02.215Z,7.71
2017-05-04T04:00:02.293Z,7.56
2017-05-04T04:15:02.931Z,7.44
2017-05-04T04:30:02.485Z,7.42
2017-05-04T04:45:02.959Z,7.54
2017-05-04T05:00:02.208Z,7.49
2017-05-04T05:15:02.991Z,7.6
2017-05-04T05:30:03.108Z,7.83
2017-05-04T05:45:02.918Z,7.9
2017-05-04T06:00:02.494Z,8.06
2017-05-04T06:15:02.305Z,8.23
2017-05-04T06:30:03.201Z,8.48
2017-05-04T06:45:02.884Z,8.68
2017-05-04T07:00:02.449Z,8.92
2017-05-04T07:15:02.709Z,9.12
2017-05-04T07:30:02.458Z,9.08
2017-05-04T07:45:02.222Z,9.05
2017-05-04T08:00:02.888Z,8.91
2017-05-04T08:15:02.644Z,8.72
2017-05-04T08:30:02.460Z,8.62
2017-05-04T08:45:02.246Z,8.49
2017-05-04T09:00:02.601Z,8.58
2017-05-04T09:15:02.896Z,8.64
2017-05-04T09:30:02.694Z,8.6
2017-05-04T09:45:02.287Z,8.56
2017-05-04T10:00:02.923Z,8.45
2017-05-04T10:15:02.339Z,8.32
2017-05-04T10:30:02.716Z,8.38
2017-05-04T10:45:02.336Z,8.26
2017-05-04T11:00:02.760Z,8.19
2017-05-04T11:15:02.491Z,8.05
2017-05-04T11:30:03.038Z,8.16
2017-05-04T11:45:02.492Z,8.31
2017-05-04T12:00:02.168Z,8.29
2017-05-04T12:15:03.135Z,8.43
2017-05-04T12:30:02.968Z,8.42
2017-05-04T12:45:03.021Z,8.47
2017-05-04T13:00:02.613Z,8.64
2017-05-04T13:15:02.151Z,8.65
2017-05-04T13:30:02.255Z,8.7
2017-05-04T13:45:02.935Z,8.7
2017-05-04T14:00:02.405Z,8.71
2017-05-04T14:15:02.743Z,8.82
2017-05-04T14:30:02.457Z,8.83
2017-05-04T14:45:02.954Z,8.7
2017-05-04T15:00:02.430Z,8.5
2017-05-04T15:15:02.263Z,8.44
2017-05-04T15:30:02.268Z,8.36
2017-05-04T15:45:02.994Z,8.39
2017-05-04T16:00:02.991Z,8.36
2017-05-04T16:15:02.339Z,8.36
2017-05-04T16:30:02.184Z,8.32
2017-05-04T16:45:03.056Z,8.26
2017-05-04T17:00:02.962Z,8.21
2017-05-04T17:15:03.021Z,8.13
2017-05-04T17:30:02.494Z,8.07
2017-05-04T17:45:02.195Z,8.02
2017-05-04T18:00:02.696Z,7.92
2017-05-04T18:15:02.979Z,7.83
2017-05-04T18:30:02.665Z,7.77
2017-05-04T18:45:03.143Z,7.67
2017-05-04T19:00:02.917Z,7.61
2017-05-04T19:15:02.419Z,7.58
2017-05-04T19:30:03.045Z,7.56
2017-05-04T19:45:02.743Z,7.44
2017-05-04T20:00:02.392Z,7.32
2017-05-04T20:15:02.575Z,7.26
2017-05-04T20:30:02.402Z,7.26
2017-05-04T20:45:02.861Z,7.26
2017-05-04T21:00:02.368Z,7.19
2017-05-04T21:15:02.725Z,7.16
2017-05-04T21:30:02.405Z,7.11
2017-05-04T21:45:03.037Z,7.07
2017-05-04T22:00:02.540Z,7.05
2017-05-04T22:15:02.696Z,7.04
2017-05-04T22:30:02.242Z,7.02
2017-05-04T22:45:02.893Z,7
2017-05-04T23:00:02.966Z,7.02
2017-05-04T23:15:02.256Z,7
2017-05-04T23:30:02.528Z,7
2017-05-04T23:45:02.206Z,6.96
